createdAt,value
2022-09-21T00:01:19.406Z,1022.6
2022-09-21T00:06:19.556Z,1022.6
2022-09-21T00:11:19.465Z,1022.5
2022-09-21T00:16:19.258Z,1022.6
2022-09-21T00:21:19.334Z,1022.5
2022-09-21T00:26:19.384Z,1022.5
2022-09-21T00:31:19.434Z,1022.5
2022-09-21T00:36:19.246Z,1022.5
2022-09-21T00:41:19.455Z,1022.6
2022-09-21T00:46:19.251Z,1022.6
2022-09-21T00:51:19.221Z,1022.6
2022-09-21T00:56:19.135Z,1022.7
2022-09-21T01:01:19.171Z,1022.7
2022-09-21T01:06:19.365Z,1022.6
2022-09-21T01:11:19.325Z,1022.7
2022-09-21T01:16:19.229Z,1022.7
2022-09-21T01:21:19.308Z,1022.7
2022-09-21T01:26:19.173Z,1022.8
2022-09-21T01:31:19.332Z,1022.7
2022-09-21T01:36:19.444Z,1022.8
2022-09-21T01:41:19.222Z,1022.8
2022-09-21T01:46:19.232Z,1022.8
2022-09-21T01:51:19.375Z,1022.8
2022-09-21T01:56:19.192Z,1022.9
2022-09-21T02:01:19.103Z,1022.8
2022-09-21T02:06:19.288Z,1022.9
2022-09-21T02:11:19.089Z,1022.9
2022-09-21T02:16:19.243Z,1022.9
2022-09-21T02:21:19.209Z,1023.0
2022-09-21T02:26:18.983Z,1023.0
2022-09-21T02:31:19.099Z,1023.0
2022-09-21T02:36:19.250Z,1023.1
2022-09-21T02:41:18.959Z,1023.1
2022-09-21T02:46:19.050Z,1023.0
2022-09-21T02:51:19.086Z,1023.1
2022-09-21T02:56:18.983Z,1023.2
2022-09-21T03:01:19.113Z,1023.2
2022-09-21T03:06:19.089Z,1023.3
2022-09-21T03:11:19.032Z,1023.3
2022-09-21T03:16:19.064Z,1023.4
2022-09-21T03:21:19.185Z,1023.4
2022-09-21T03:26:18.882Z,1023.5
2022-09-21T03:31:19.094Z,1023.4
2022-09-21T03:36:19.118Z,1023.5
2022-09-21T03:41:19.040Z,1023.4
2022-09-21T03:46:19.043Z,1023.5
2022-09-21T03:51:19.227Z,1023.4
2022-09-21T03:56:19.038Z,1023.6
2022-09-21T04:01:18.886Z,1023.6
2022-09-21T04:06:19.004Z,1023.7
2022-09-21T04:11:18.907Z,1023.7
2022-09-21T04:16:19.207Z,1023.7
2022-09-21T04:21:18.949Z,1023.7
2022-09-21T04:26:18.984Z,1023.7
2022-09-21T04:31:19.129Z,1023.7
2022-09-21T04:36:18.958Z,1023.8
2022-09-21T04:41:18.804Z,1023.9
2022-09-21T04:46:19.269Z,1023.8
2022-09-21T04:51:19.037Z,1023.8
2022-09-21T04:56:18.775Z,1023.9
2022-09-21T05:01:18.839Z,1023.9
2022-09-21T05:06:18.771Z,1024.0
2022-09-21T05:11:18.825Z,1023.9
2022-09-21T05:16:19.203Z,1023.9
2022-09-21T05:21:18.776Z,1023.9
2022-09-21T05:26:18.834Z,1023.9
2022-09-21T05:31:19.007Z,1024.1
2022-09-21T05:36:18.738Z,1024.0
2022-09-21T05:41:18.812Z,1024.1
2022-09-21T05:46:19.045Z,1024.2
2022-09-21T05:51:18.723Z,1024.2
2022-09-21T05:56:18.711Z,1024.3
2022-09-21T06:01:19.004Z,1024.3
2022-09-21T06:06:18.746Z,1024.2
2022-09-21T06:11:41.887Z,1024.3
2022-09-21T06:16:18.679Z,1024.2
2022-09-21T06:21:18.702Z,1024.2
2022-09-21T06:26:18.708Z,1024.3
2022-09-21T06:31:18.996Z,1024.3
2022-09-21T06:36:18.625Z,1024.3
2022-09-21T06:41:20.990Z,1024.3
2022-09-21T06:46:19.005Z,1024.3
2022-09-21T06:51:18.644Z,1024.3
2022-09-21T06:56:18.560Z,1024.4
2022-09-21T07:01:18.929Z,1024.5
2022-09-21T07:06:18.617Z,1024.6
2022-09-21T07:11:18.578Z,1024.6
2022-09-21T07:16:18.749Z,1024.5
2022-09-21T07:21:18.556Z,1024.7
2022-09-21T07:26:18.627Z,1024.7
2022-09-21T07:31:18.813Z,1024.8
2022-09-21T07:36:18.458Z,1024.8
2022-09-21T07:41:18.526Z,1024.8
2022-09-21T07:46:18.633Z,1024.8
2022-09-21T07:51:18.494Z,1024.9
2022-09-21T07:56:18.581Z,1024.9
2022-09-21T08:01:18.742Z,1024.9
2022-09-21T08:06:18.469Z,1024.9
2022-09-21T08:11:18.429Z,1025.0
2022-09-21T08:16:18.607Z,1025.0
2022-09-21T08:21:18.484Z,1025.0
2022-09-21T08:26:18.572Z,1024.9
2022-09-21T08:31:18.721Z,1025.0
2022-09-21T08:36:18.394Z,1025.1
2022-09-21T08:41:18.411Z,1025.1
2022-09-21T08:46:18.755Z,1025.2
2022-09-21T08:51:18.415Z,1025.1
2022-09-21T08:56:18.349Z,1025.2
2022-09-21T09:01:18.683Z,1025.1
2022-09-21T09:06:18.557Z,1025.1
2022-09-21T09:11:18.570Z,1025.1
2022-09-21T09:16:18.771Z,1025.2
2022-09-21T09:21:25.633Z,1025.2
2022-09-21T09:26:18.368Z,1025.1
2022-09-21T09:31:18.550Z,1025.1
2022-09-21T09:36:30.079Z,1025.1
2022-09-21T09:41:18.333Z,1025.1
2022-09-21T09:46:18.584Z,1025.2
2022-09-21T09:51:18.367Z,1025.1
2022-09-21T09:56:18.336Z,1025.2
2022-09-21T10:01:18.677Z,1025.2
2022-09-21T10:06:18.328Z,1025.2
2022-09-21T10:11:18.345Z,1025.2
2022-09-21T10:16:18.447Z,1025.1
2022-09-21T10:21:18.200Z,1025.1
2022-09-21T10:26:18.215Z,1025.2
2022-09-21T10:31:18.241Z,1025.2
2022-09-21T10:36:18.353Z,1025.1
2022-09-21T10:41:18.446Z,1025.1
2022-09-21T10:46:18.211Z,1025.0
2022-09-21T10:51:18.144Z,1025.0
2022-09-21T10:56:18.436Z,1025.0
2022-09-21T11:01:18.239Z,1024.9
2022-09-21T11:06:22.848Z,1025.0
2022-09-21T11:11:20.142Z,1025.0
2022-09-21T11:16:18.459Z,1024.9
2022-09-21T11:21:18.134Z,1025.0
2022-09-21T11:26:18.496Z,1024.9
2022-09-21T11:31:18.220Z,1025.0
2022-09-21T11:36:18.306Z,1024.9
2022-09-21T11:41:18.019Z,1025.0
2022-09-21T11:46:18.161Z,1024.9
2022-09-21T11:51:18.104Z,1024.8
2022-09-21T11:56:18.267Z,1024.9
2022-09-21T12:01:18.137Z,1024.9
2022-09-21T12:06:18.442Z,1024.8
2022-09-21T12:11:17.984Z,1024.7
2022-09-21T12:16:18.047Z,1024.7
2022-09-21T12:21:18.542Z,1024.6
2022-09-21T12:26:17.987Z,1024.6
2022-09-21T12:31:17.980Z,1024.5
2022-09-21T12:36:18.298Z,1024.5
2022-09-21T12:41:17.974Z,1024.5
2022-09-21T12:46:18.096Z,1024.4
2022-09-21T12:51:18.189Z,1024.4
2022-09-21T12:56:18.047Z,1024.3
2022-09-21T13:01:18.251Z,1024.4
2022-09-21T13:06:18.180Z,1024.3
2022-09-21T13:11:18.174Z,1024.3
2022-09-21T13:16:18.225Z,1024.3
2022-09-21T13:21:18.107Z,1024.5
2022-09-21T13:26:21.576Z,1024.4
2022-09-21T13:31:39.482Z,1024.4
2022-09-21T13:36:23.167Z,1024.3
2022-09-21T13:41:18.082Z,1024.3
2022-09-21T13:46:17.960Z,1024.3
2022-09-21T13:51:17.958Z,1024.2
2022-09-21T13:56:17.952Z,1024.2
2022-09-21T14:01:42.482Z,1024.2
2022-09-21T14:06:18.782Z,1024.2
2022-09-21T14:11:18.021Z,1024.2
2022-09-21T14:16:17.905Z,1024.2
2022-09-21T14:21:17.884Z,1024.1
2022-09-21T14:26:18.139Z,1024.1
2022-09-21T14:31:18.143Z,1024.1
2022-09-21T14:36:17.953Z,1024.0
2022-09-21T14:41:17.835Z,1024.0
2022-09-21T14:46:17.926Z,1024.0
2022-09-21T14:51:17.785Z,1024.0
2022-09-21T14:56:18.344Z,1024.0
2022-09-21T15:01:18.181Z,1024.2
2022-09-21T15:06:17.733Z,1024.6
2022-09-21T15:11:18.006Z,1024.4
2022-09-21T15:16:17.997Z,1024.3
2022-09-21T15:21:17.792Z,1024.3
2022-09-21T15:26:17.696Z,1024.3
2022-09-21T15:31:17.818Z,1024.3
2022-09-21T15:36:17.761Z,1024.3
2022-09-21T15:41:17.876Z,1024.4
2022-09-21T15:46:17.690Z,1024.3
2022-09-21T15:51:17.706Z,1024.4
2022-09-21T15:56:17.937Z,1024.4
2022-09-21T16:01:17.789Z,1024.5
2022-09-21T16:06:17.671Z,1024.4
2022-09-21T16:11:17.620Z,1024.6
2022-09-21T16:16:17.813Z,1024.7
2022-09-21T16:21:17.716Z,1024.7
2022-09-21T16:26:17.592Z,1024.8
2022-09-21T16:31:17.932Z,1024.8
2022-09-21T16:36:17.697Z,1024.8
2022-09-21T16:41:17.608Z,1024.8
2022-09-21T16:46:17.953Z,1024.9
2022-09-21T16:51:17.634Z,1024.9
2022-09-21T16:56:17.633Z,1024.9
2022-09-21T17:01:17.769Z,1024.9
2022-09-21T17:06:17.616Z,1025.0
2022-09-21T17:11:17.597Z,1024.9
2022-09-21T17:16:17.831Z,1024.9
2022-09-21T17:21:17.596Z,1025.0
2022-09-21T17:26:17.624Z,1025.1
2022-09-21T17:31:17.723Z,1025.1
2022-09-21T17:36:17.554Z,1025.2
2022-09-21T17:41:18.583Z,1025.3
2022-09-21T17:46:17.584Z,1025.3
2022-09-21T17:51:17.483Z,1025.3
2022-09-21T17:56:18.030Z,1025.4
2022-09-21T18:01:17.596Z,1025.4
2022-09-21T18:06:17.523Z,1025.4
2022-09-21T18:11:17.765Z,1025.4
2022-09-21T18:16:17.517Z,1025.5
2022-09-21T18:21:24.382Z,1025.4
2022-09-21T18:26:18.107Z,1025.5
2022-09-21T18:31:18.451Z,1025.5
2022-09-21T18:36:17.473Z,1025.6
2022-09-21T18:41:17.449Z,1025.5
2022-09-21T18:46:17.658Z,1025.5
2022-09-21T18:51:17.690Z,1025.5
2022-09-21T18:56:19.015Z,1025.5
2022-09-21T19:01:17.646Z,1025.5
2022-09-21T19:06:17.353Z,1025.5
2022-09-21T19:11:17.366Z,1025.6
2022-09-21T19:16:17.489Z,1025.6
2022-09-21T19:21:17.504Z,1025.6
2022-09-21T19:26:17.318Z,1025.5
2022-09-21T19:31:17.340Z,1025.6
2022-09-21T19:36:17.577Z,1025.5
2022-09-21T19:41:17.323Z,1025.4
2022-09-21T19:46:17.387Z,1025.3
2022-09-21T19:51:17.607Z,1025.3
2022-09-21T19:56:17.360Z,1025.3
2022-09-21T20:01:17.250Z,1025.4
2022-09-21T20:06:17.184Z,1025.4
2022-09-21T20:11:17.290Z,1025.4
2022-09-21T20:15:23.276Z,1025.4
2022-09-21T20:20:23.592Z,1025.4
2022-09-21T20:25:23.158Z,1025.4
2022-09-21T20:30:23.265Z,1025.4
2022-09-21T20:35:23.643Z,1025.5
2022-09-21T20:40:23.222Z,1025.4
2022-09-21T20:45:23.211Z,1025.3
2022-09-21T20:50:23.396Z,1025.3
2022-09-21T20:55:24.221Z,1025.4
2022-09-21T21:00:23.162Z,1025.3
2022-09-21T21:05:23.220Z,1025.4
2022-09-21T21:10:23.139Z,1025.4
2022-09-21T21:15:23.470Z,1025.4
2022-09-21T21:20:23.367Z,1025.4
2022-09-21T21:25:23.215Z,1025.5
2022-09-21T21:30:25.278Z,1025.4
2022-09-21T21:35:23.337Z,1025.5
2022-09-21T21:40:23.814Z,1025.4
2022-09-21T21:45:23.148Z,1025.6
2022-09-21T21:50:23.539Z,1025.5
2022-09-21T21:55:23.149Z,1025.4
2022-09-21T22:00:31.164Z,1025.4
2022-09-21T22:05:23.006Z,1025.3
2022-09-21T22:10:23.026Z,1025.2
2022-09-21T22:15:27.415Z,1025.2
2022-09-21T22:20:22.961Z,1025.2
2022-09-21T22:25:23.032Z,1025.1
2022-09-21T22:30:23.011Z,1025.2
2022-09-21T22:35:23.018Z,1025.2
2022-09-21T22:40:23.292Z,1025.1
2022-09-21T22:45:23.100Z,1025.0
2022-09-21T22:50:22.963Z,1025.0
2022-09-21T22:55:23.193Z,1025.0
2022-09-21T23:00:23.220Z,1025.0
2022-09-21T23:05:22.971Z,1025.0
2022-09-21T23:10:22.995Z,1025.0
2022-09-21T23:15:23.522Z,1025.1
2022-09-21T23:20:22.945Z,1025.0
2022-09-21T23:25:23.036Z,1024.9
2022-09-21T23:30:22.843Z,1024.9
2022-09-21T23:35:22.950Z,1024.9
2022-09-21T23:40:23.269Z,1024.8
2022-09-21T23:45:23.037Z,1024.8
2022-09-21T23:50:22.968Z,1024.8
2022-09-21T23:55:23.221Z,1024.9
